Airfield :
LOGIN :

Register | Disclaimer

   EN    FR    IT 

 










Legend :    VFR   Marginal VFR   IFR   Intensive IFR   Very Intensive IFR
Visi :
Ceiling :
>= 8 km
>= 3000ft
5 to 8 km
1000 to 3000 ft
1500m to 5 km
500 to 1000 ft
800 to 1500m
200 to 500 ft
< 800m
< 200 ft
Symbols :   Thunderstorms  Fog  Heavy snow  Heavy precipitations  Wind > 20 kt
SIGMETs :     Misc.  Thunderstorms  Icing  Turbulence  Mountain Waves  Volcanic Ashes






- Airport Elevation : 622 ft
- IATA code : BRS


EGGD - Bristol Int.

CURRENT METAR :
  • 241020Z AUTO 06004KT 9999 BKN004 OVC007 05/04 Q1024

EXPIRED METARs :
  • 240950Z AUTO 05004KT 020V080 9999 BKN004 OVC009 05/04 Q1024
  • 240920Z AUTO 07003KT 9999 OVC007 04/04 Q1024
  • 240850Z AUTO 04004KT 010V080 9999 BKN004 OVC009 04/04 Q1024
  • 240820Z AUTO 06004KT 020V090 8000 OVC002 04/04 Q1023
  • 240750Z AUTO 03006KT 340V050 0300 R27/1200 FG OVC002 04/04 Q1023

TAF AMD TAF EGGD
Valid from the 24 at 09:00 until the 25 at 06:00 UTC


240905Z 2409/2506 03005KT 9999 SCT004 BKN010
TEMPO 2409/2411 3000 -DZ BR OVC002
PROB30
TEMPO 2409/2411 0700 BCFG OVC001
BECMG 2411/2413 SCT008 BKN015
TEMPO 2413/2501 6000 -DZ BKN004
PROB30
TEMPO 2418/2501 0200 FG OVC000
TEMPO 2501/2506 BKN006
ATIS : +44 1275 473 666



MET'MAP, your aeronautical weather chart ! - Copyright ORBIFLY December 2007 - Disclaimer

ORBIFLY MET'MAP TEAM :

Programming & Development : Alexandra Zaïnal
Concept & original design : Baudouin d'Aumeries
Assistance for programming : Marc-Olivier Méhu
Technical & hardware support : Manuel Goepfert

Contact : metmap@orbifly.com




SOURCES & CREDITS :

   NOAA